^^
Grace C. Lehan Memorial Weather Station Historical Data
Daily Summary for June 8, 2022 Units:  Both    English   Metric
Daily Weekly Monthly Yearly
  High: Low: Average:
Temperature: 32.2 °F /  0.1 °C 14.4 °F /  -9.8 °C 22.7 °F /  -5.2 °C
Dew Point: 14 °F /  -10 °C 6.9 °F /  -13.9 °C 10.1 °F /  -12.2 °C
Humidity: 74% 37% 59%
Wind Speed: 10mph /  16.1km/h - 2mph /  3.2km/h
Wind Gust: 20mph /  32.2km/h - -
Wind- - WNW
Pressure: 30.57 in /  1035.1 hPa 30.11 in /  1019.5 hPa -
Precipitation: 0.00 in /  0 mm    
 
 
Tabular Data for June 8, 2022
Time Temperature Dew Point Pressure Wind Wind Speed Wind Gust Humidity Rainfall Rate (Hourly) solar
00:04 22.8 °F /  -5.1 °C 13.2 °F /  -10.4 °C 30.11in /  1019.5hPa WNW 1.2mph /  1.9km/h 15mph /  24.1km/h 66% 0.00in /  0mm 0 W/m2
00:09 22.7 °F /  -5.2 °C 13.4 °F /  -10.3 °C 30.11in /  1019.5hPa WNW 3.1mph /  5km/h 12mph /  19.3km/h 66.9% 0.00in /  0mm 0 W/m2
00:14 22.6 °F /  -5.2 °C 13.3 °F /  -10.4 °C 30.12in /  1019.9hPa WNW 3.9mph /  6.3km/h 12mph /  19.3km/h 67% 0.00in /  0mm 0 W/m2
00:19 22.6 °F /  -5.2 °C 13.5 °F /  -10.3 °C 30.12in /  1019.9hPa NW 4.6mph /  7.4km/h 14mph /  22.5km/h 67.7% 0.00in /  0mm 0 W/m2
00:24 22.6 °F /  -5.2 °C 13.7 °F /  -10.2 °C 30.11in /  1019.5hPa WNW 4.1mph /  6.6km/h 14mph /  22.5km/h 68% 0.00in /  0mm 0 W/m2
00:29 22.6 °F /  -5.2 °C 13.7 °F /  -10.2 °C 30.12in /  1019.9hPa WNW 3.1mph /  5km/h 14mph /  22.5km/h 68.1% 0.00in /  0mm 0 W/m2
00:34 22.6 °F /  -5.2 °C 14 °F /  -10 °C 30.12in /  1019.9hPa WNW 3.3mph /  5.3km/h 14mph /  22.5km/h 69% 0.00in /  0mm 0 W/m2
00:39 22.5 °F /  -5.3 °C 13.9 °F /  -10.1 °C 30.12in /  1019.9hPa WNW 3.9mph /  6.3km/h 12mph /  19.3km/h 69% 0.00in /  0mm 0 W/m2
00:44 22.5 °F /  -5.3 °C 13.8 °F /  -10.1 °C 30.12in /  1019.9hPa WNW 7mph /  11.3km/h 16mph /  25.7km/h 69% 0.00in /  0mm 0 W/m2
00:49 22.4 °F /  -5.3 °C 14 °F /  -10 °C 30.13in /  1020.2hPa WNW 2mph /  3.2km/h 16mph /  25.7km/h 69.7% 0.00in /  0mm 0 W/m2
00:54 22.4 °F /  -5.3 °C 13.9 °F /  -10.1 °C 30.13in /  1020.2hPa NW 5.6mph /  9km/h 16mph /  25.7km/h 69.3% 0.00in /  0mm 0 W/m2
00:59 22.4 °F /  -5.3 °C 13.8 °F /  -10.1 °C 30.14in /  1020.5hPa WNW 2.2mph /  3.5km/h 16mph /  25.7km/h 69% 0.00in /  0mm 0 W/m2
01:04 22.3 °F /  -5.4 °C 13.7 °F /  -10.2 °C 30.14in /  1020.5hPa NW 0.9mph /  1.4km/h 16mph /  25.7km/h 69% 0.00in /  0mm 0 W/m2
01:09 22.2 °F /  -5.4 °C 13.7 °F /  -10.2 °C 30.15in /  1020.9hPa NW 2.7mph /  4.3km/h 11mph /  17.7km/h 69.4% 0.00in /  0mm 0 W/m2
01:14 22 °F /  -5.6 °C 13.8 °F /  -10.1 °C 30.15in /  1020.9hPa NW 3.4mph /  5.5km/h 11mph /  17.7km/h 70% 0.00in /  0mm 0 W/m2
01:19 21.9 °F /  -5.6 °C 13.6 °F /  -10.2 °C 30.15in /  1020.9hPa NW 5.4mph /  8.7km/h 14mph /  22.5km/h 70% 0.00in /  0mm 0 W/m2
01:24 21.7 °F /  -5.7 °C 13.4 °F /  -10.3 °C 30.16in /  1021.2hPa NW 2.4mph /  3.9km/h 14mph /  22.5km/h 70% 0.00in /  0mm 0 W/m2
01:29 21.5 °F /  -5.8 °C 13.3 °F /  -10.4 °C 30.16in /  1021.2hPa NW 2.6mph /  4.2km/h 14mph /  22.5km/h 70% 0.00in /  0mm 0 W/m2
01:34 21.4 °F /  -5.9 °C 13.1 °F /  -10.5 °C 30.17in /  1021.6hPa NW 4.4mph /  7.1km/h 14mph /  22.5km/h 70% 0.00in /  0mm 0 W/m2
01:39 21.3 °F /  -5.9 °C 13 °F /  -10.6 °C 30.17in /  1021.6hPa NW 4.3mph /  6.9km/h 13mph /  20.9km/h 70% 0.00in /  0mm 0 W/m2
01:44 21.2 °F /  -6 °C 13.4 °F /  -10.3 °C 30.17in /  1021.6hPa NW 4.2mph /  6.8km/h 13mph /  20.9km/h 71.6% 0.00in /  0mm 0 W/m2
01:49 21.1 °F /  -6.1 °C 12.5 °F /  -10.8 °C 30.18in /  1021.9hPa WNW 3.6mph /  5.8km/h 13mph /  20.9km/h 69% 0.00in /  0mm 0 W/m2
01:54 21.1 °F /  -6.1 °C 12.5 °F /  -10.8 °C 30.18in /  1021.9hPa NW 6.3mph /  10.1km/h 14mph /  22.5km/h 69% 0.00in /  0mm 0 W/m2
01:59 21 °F /  -6.1 °C 12.2 °F /  -11 °C 30.19in /  1022.2hPa NW 1.6mph /  2.6km/h 14mph /  22.5km/h 68.3% 0.00in /  0mm 0 W/m2
02:04 20.9 °F /  -6.2 °C 12.2 °F /  -11 °C 30.19in /  1022.2hPa NW 5.9mph /  9.5km/h 16mph /  25.7km/h 68.5% 0.00in /  0mm 0 W/m2
02:09 20.7 °F /  -6.3 °C 11.8 °F /  -11.2 °C 30.19in /  1022.2hPa NW 6.2mph /  10km/h 16mph /  25.7km/h 68% 0.00in /  0mm 0 W/m2
02:14 20.5 °F /  -6.4 °C 11.4 °F /  -11.4 °C 30.20in /  1022.6hPa WNW 3.7mph /  6km/h 16mph /  25.7km/h 67.2% 0.00in /  0mm 0 W/m2
02:19 20.3 °F /  -6.5 °C 11.1 °F /  -11.6 °C 30.20in /  1022.6hPa WNW 6.9mph /  11.1km/h 16mph /  25.7km/h 67% 0.00in /  0mm 0 W/m2
02:24 20.2 °F /  -6.6 °C 10.9 °F /  -11.7 °C 30.21in /  1022.9hPa NW 7.7mph /  12.4km/h 17mph /  27.4km/h 66.6% 0.00in /  0mm 0 W/m2
02:29 20 °F /  -6.7 °C 10.5 °F /  -11.9 °C 30.21in /  1022.9hPa NW 8.2mph /  13.2km/h 17mph /  27.4km/h 66% 0.00in /  0mm 0 W/m2
02:34 19.8 °F /  -6.8 °C 10.3 °F /  -12.1 °C 30.22in /  1023.2hPa NW 8.5mph /  13.7km/h 17mph /  27.4km/h 66% 0.00in /  0mm 0 W/m2
02:39 19.7 °F /  -6.8 °C 10.2 °F /  -12.1 °C 30.22in /  1023.2hPa NW 7.1mph /  11.4km/h 16mph /  25.7km/h 66% 0.00in /  0mm 0 W/m2
02:44 19.6 °F /  -6.9 °C 10.1 °F /  -12.2 °C 30.22in /  1023.2hPa WNW 8.1mph /  13km/h 17mph /  27.4km/h 66% 0.00in /  0mm 0 W/m2
02:49 19.4 °F /  -7 °C 10 °F /  -12.2 °C 30.23in /  1023.6hPa NW 8.6mph /  13.8km/h 20mph /  32.2km/h 66% 0.00in /  0mm 0 W/m2
02:54 19.3 °F /  -7.1 °C 10.2 °F /  -12.1 °C 30.23in /  1023.6hPa WNW 5.4mph /  8.7km/h 20mph /  32.2km/h 66.9% 0.00in /  0mm 0 W/m2
02:59 19.2 °F /  -7.1 °C 10 °F /  -12.2 °C 30.24in /  1023.9hPa NW 7.9mph /  12.7km/h 20mph /  32.2km/h 67% 0.00in /  0mm 0 W/m2
03:04 19.1 °F /  -7.2 °C 9.9 °F /  -12.3 °C 30.25in /  1024.3hPa NW 6.4mph /  10.3km/h 20mph /  32.2km/h 67% 0.00in /  0mm 0 W/m2
03:09 19 °F /  -7.2 °C 9.8 °F /  -12.3 °C 30.25in /  1024.3hPa NW 4.7mph /  7.6km/h 13mph /  20.9km/h 67% 0.00in /  0mm 0 W/m2
03:14 18.9 °F /  -7.3 °C 9.8 °F /  -12.3 °C 30.26in /  1024.6hPa WNW 2.3mph /  3.7km/h 13mph /  20.9km/h 67% 0.00in /  0mm 0 W/m2
03:19 18.8 °F /  -7.3 °C 9.6 °F /  -12.4 °C 30.26in /  1024.6hPa WNW 4.2mph /  6.8km/h 14mph /  22.5km/h 67% 0.00in /  0mm 0 W/m2
03:24 18.6 °F /  -7.4 °C 9.5 °F /  -12.5 °C 30.27in /  1024.9hPa WNW 5.2mph /  8.4km/h 14mph /  22.5km/h 67% 0.00in /  0mm 0 W/m2
03:29 18.5 °F /  -7.5 °C 9.5 °F /  -12.5 °C 30.27in /  1024.9hPa NW 5.9mph /  9.5km/h 15mph /  24.1km/h 67.3% 0.00in /  0mm 0 W/m2
03:34 18.5 °F /  -7.5 °C 9.7 °F /  -12.4 °C 30.27in /  1024.9hPa NW 3.5mph /  5.6km/h 15mph /  24.1km/h 68% 0.00in /  0mm 0 W/m2
03:39 18.4 °F /  -7.6 °C 9.6 °F /  -12.4 °C 30.27in /  1024.9hPa NW 4.3mph /  6.9km/h 13mph /  20.9km/h 68% 0.00in /  0mm 0 W/m2
03:44 18.3 °F /  -7.6 °C 9.5 °F /  -12.5 °C 30.27in /  1024.9hPa NW 6.6mph /  10.6km/h 13mph /  20.9km/h 68% 0.00in /  0mm 0 W/m2
03:49 18.3 °F /  -7.6 °C 9.5 °F /  -12.5 °C 30.27in /  1024.9hPa WNW 6.2mph /  10km/h 14mph /  22.5km/h 68% 0.00in /  0mm 0 W/m2
03:54 18.3 °F /  -7.6 °C 9.5 °F /  -12.5 °C 30.28in /  1025.3hPa NW 5.2mph /  8.4km/h 14mph /  22.5km/h 68% 0.00in /  0mm 0 W/m2
03:59 18.2 °F /  -7.7 °C 9.4 °F /  -12.6 °C 30.28in /  1025.3hPa WNW 4.7mph /  7.6km/h 14mph /  22.5km/h 68% 0.00in /  0mm 0 W/m2
04:00 18.2 °F /  -7.7 °C 9.4 °F /  -12.6 °C 30.28in /  1025.3hPa NW 10mph /  16.1km/h 14mph /  22.5km/h 68% 0.00in /  0mm 0 W/m2
04:09 18.1 °F /  -7.7 °C 9.3 °F /  -12.6 °C 30.29in /  1025.6hPa WNW 5.8mph /  9.3km/h 13mph /  20.9km/h 68% 0.00in /  0mm 0 W/m2
04:14 18.1 °F /  -7.7 °C 9.3 °F /  -12.6 °C 30.29in /  1025.6hPa NW 5.5mph /  8.9km/h 13mph /  20.9km/h 68% 0.00in /  0mm 0 W/m2
04:19 18.1 °F /  -7.7 °C 9.3 °F /  -12.6 °C 30.30in /  1026hPa NW 6.4mph /  10.3km/h 17mph /  27.4km/h 68% 0.00in /  0mm 0 W/m2
04:24 18.1 °F /  -7.7 °C 9.3 °F /  -12.6 °C 30.31in /  1026.3hPa NW 6.5mph /  10.5km/h 17mph /  27.4km/h 68% 0.00in /  0mm 0 W/m2
04:29 18 °F /  -7.8 °C 9.3 °F /  -12.6 °C 30.31in /  1026.3hPa WNW 7.4mph /  11.9km/h 17mph /  27.4km/h 68% 0.00in /  0mm 0 W/m2
04:34 18 °F /  -7.8 °C 9.2 °F /  -12.7 °C 30.31in /  1026.3hPa WNW 8mph /  12.9km/h 17mph /  27.4km/h 68% 0.00in /  0mm 0 W/m2
04:39 18 °F /  -7.8 °C 9.2 °F /  -12.7 °C 30.31in /  1026.3hPa WNW 8mph /  12.9km/h 14mph /  22.5km/h 68% 0.00in /  0mm 0 W/m2
04:44 17.9 °F /  -7.8 °C 9.2 °F /  -12.7 °C 30.32in /  1026.6hPa NW 6.8mph /  10.9km/h 14mph /  22.5km/h 68% 0.00in /  0mm 0 W/m2
04:49 17.9 °F /  -7.8 °C 9.1 °F /  -12.7 °C 30.32in /  1026.6hPa NW 5mph /  8km/h 14mph /  22.5km/h 68% 0.00in /  0mm 0 W/m2
04:54 17.8 °F /  -7.9 °C 9 °F /  -12.8 °C 30.33in /  1027hPa NW 4.4mph /  7.1km/h 14mph /  22.5km/h 68% 0.00in /  0mm 0 W/m2
04:59 17.6 °F /  -8 °C 8.9 °F /  -12.8 °C 30.33in /  1027hPa NW 2.4mph /  3.9km/h 14mph /  22.5km/h 68% 0.00in /  0mm 0 W/m2
05:04 17.5 °F /  -8.1 °C 8.8 °F /  -12.9 °C 30.33in /  1027hPa North 1.7mph /  2.7km/h 14mph /  22.5km/h 68.1% 0.00in /  0mm 0 W/m2
05:09 17.4 °F /  -8.1 °C 8.8 °F /  -12.9 °C 30.34in /  1027.3hPa NNW 1.5mph /  2.4km/h 6mph /  9.7km/h 68.6% 0.00in /  0mm 0 W/m2
05:14 17.3 °F /  -8.2 °C 8.5 °F /  -13.1 °C 30.34in /  1027.3hPa NNW 2.4mph /  3.9km/h 6mph /  9.7km/h 68% 0.00in /  0mm 0 W/m2
05:19 17.2 °F /  -8.2 °C 8.5 °F /  -13.1 °C 30.34in /  1027.3hPa NW 2.3mph /  3.7km/h 6mph /  9.7km/h 68% 0.00in /  0mm 0 W/m2
05:24 17.2 °F /  -8.2 °C 8.4 °F /  -13.1 °C 30.34in /  1027.3hPa WNW 0.8mph /  1.3km/h 6mph /  9.7km/h 68% 0.00in /  0mm 0 W/m2
05:29 17.1 °F /  -8.3 °C 8.4 °F /  -13.1 °C 30.35in /  1027.7hPa WNW 2.2mph /  3.5km/h 6mph /  9.7km/h 68% 0.00in /  0mm 0 W/m2
05:34 17 °F /  -8.3 °C 8.3 °F /  -13.2 °C 30.35in /  1027.7hPa WNW 3.7mph /  6km/h 10mph /  16.1km/h 68% 0.00in /  0mm 0 W/m2
05:39 17 °F /  -8.3 °C 8.3 °F /  -13.2 °C 30.36in /  1028hPa WNW 2.7mph /  4.3km/h 10mph /  16.1km/h 68% 0.00in /  0mm 0 W/m2
05:44 16.9 °F /  -8.4 °C 8.2 °F /  -13.2 °C 30.36in /  1028hPa NNW 0.9mph /  1.4km/h 10mph /  16.1km/h 68% 0.00in /  0mm 0 W/m2
05:49 16.9 °F /  -8.4 °C 8.1 °F /  -13.3 °C 30.36in /  1028hPa NW 1.4mph /  2.3km/h 10mph /  16.1km/h 68% 0.00in /  0mm 0 W/m2
05:54 16.8 °F /  -8.4 °C 8.1 °F /  -13.3 °C 30.37in /  1028.3hPa NW 1.3mph /  2.1km/h 10mph /  16.1km/h 68% 0.00in /  0mm 0 W/m2
05:59 16.7 °F /  -8.5 °C 8 °F /  -13.3 °C 30.38in /  1028.7hPa NW 2.1mph /  3.4km/h 10mph /  16.1km/h 68% 0.00in /  0mm 0 W/m2
06:04 16.6 °F /  -8.6 °C 7.9 °F /  -13.4 °C 30.39in /  1029hPa NW 0.9mph /  1.4km/h 10mph /  16.1km/h 68% 0.00in /  0mm 0 W/m2
06:09 16.6 °F /  -8.6 °C 7.9 °F /  -13.4 °C 30.39in /  1029hPa NW 1.8mph /  2.9km/h 6mph /  9.7km/h 68.2% 0.00in /  0mm 0 W/m2
06:14 16.4 °F /  -8.7 °C 7.9 °F /  -13.4 °C 30.39in /  1029hPa Calm   6mph /  9.7km/h 68.4% 0.00in /  0mm 0 W/m2
06:19 16.4 °F /  -8.7 °C 7.7 °F /  -13.5 °C 30.39in /  1029hPa NW 0.5mph /  0.8km/h 6mph /  9.7km/h 68% 0.00in /  0mm 0 W/m2
06:24 16.3 °F /  -8.7 °C 7.6 °F /  -13.6 °C 30.39in /  1029hPa NW 0.1mph /  0.2km/h 6mph /  9.7km/h 68% 0.00in /  0mm 0 W/m2
06:29 16.2 °F /  -8.8 °C 7.8 °F /  -13.4 °C 30.40in /  1029.3hPa Calm   6mph /  9.7km/h 69% 0.00in /  0mm 0 W/m2
06:34 16.1 °F /  -8.8 °C 7.7 °F /  -13.5 °C 30.40in /  1029.3hPa Calm   6mph /  9.7km/h 69% 0.00in /  0mm 0 W/m2
06:39 15.9 °F /  -8.9 °C 7.8 °F /  -13.4 °C 30.41in /  1029.7hPa Calm     69.8% 0.00in /  0mm 0 W/m2
06:44 15.8 °F /  -9 °C 7.5 °F /  -13.6 °C 30.41in /  1029.7hPa Calm     69.2% 0.00in /  0mm 0 W/m2
06:49 15.6 °F /  -9.1 °C 7.3 °F /  -13.7 °C 30.41in /  1029.7hPa Calm     69% 0.00in /  0mm 0 W/m2
06:54 15.5 °F /  -9.2 °C 7.4 °F /  -13.7 °C 30.41in /  1029.7hPa Calm     70% 0.00in /  0mm 0 W/m2
06:59 15.3 °F /  -9.3 °C 7.4 °F /  -13.7 °C 30.42in /  1030hPa NW 0.1mph /  0.2km/h 4mph /  6.4km/h 70.4% 0.00in /  0mm 0 W/m2
07:04 15.2 °F /  -9.3 °C 7.5 °F /  -13.6 °C 30.42in /  1030hPa NW 1.9mph /  3.1km/h 6mph /  9.7km/h 71% 0.00in /  0mm 0 W/m2
07:09 15.1 °F /  -9.4 °C 7.4 °F /  -13.7 °C 30.42in /  1030hPa NW 0.5mph /  0.8km/h 6mph /  9.7km/h 71% 0.00in /  0mm 0 W/m2
07:14 15 °F /  -9.4 °C 7.4 °F /  -13.7 °C 30.43in /  1030.4hPa Calm   6mph /  9.7km/h 71% 0.00in /  0mm 0 W/m2
07:19 15 °F /  -9.4 °C 7.3 °F /  -13.7 °C 30.43in /  1030.4hPa NW 2.8mph /  4.5km/h 6mph /  9.7km/h 71% 0.00in /  0mm 0 W/m2
07:24 15 °F /  -9.4 °C 7.3 °F /  -13.7 °C 30.44in /  1030.7hPa NW 0.9mph /  1.4km/h 6mph /  9.7km/h 71% 0.00in /  0mm 0 W/m2
07:29 14.7 °F /  -9.6 °C 7 °F /  -13.9 °C 30.44in /  1030.7hPa Calm   6mph /  9.7km/h 71% 0.00in /  0mm 0 W/m2
07:34 14.4 °F /  -9.8 °C 6.9 °F /  -13.9 °C 30.44in /  1030.7hPa Calm   6mph /  9.7km/h 71.3% 0.00in /  0mm 0 W/m2
07:39 14.4 °F /  -9.8 °C 6.9 °F /  -13.9 °C 30.44in /  1030.7hPa Calm     71.7% 0.00in /  0mm 0 W/m2
07:44 14.4 °F /  -9.8 °C 7 °F /  -13.9 °C 30.45in /  1031hPa Calm     72% 0.00in /  0mm 9 W/m2
07:49 14.4 °F /  -9.8 °C 7.1 °F /  -13.8 °C 30.45in /  1031hPa Calm     72.1% 0.00in /  0mm 30 W/m2
07:54 14.5 °F /  -9.7 °C 7.5 °F /  -13.6 °C 30.45in /  1031hPa Calm     73% 0.00in /  0mm 37 W/m2
07:59 15 °F /  -9.4 °C 8.2 °F /  -13.2 °C 30.46in /  1031.4hPa Calm     74% 0.00in /  0mm 40 W/m2
08:09 16.5 °F /  -8.6 °C 9.2 °F /  -12.7 °C 30.47in /  1031.7hPa Calm     72.4% 0.00in /  0mm 49 W/m2
08:14 17.3 °F /  -8.2 °C 9.6 °F /  -12.4 °C 30.48in /  1032.1hPa Calm     71% 0.00in /  0mm 54 W/m2
08:18 18.2 °F /  -7.7 °C 9.8 °F /  -12.3 °C 30.48in /  1032.1hPa WNW 1.8mph /  2.9km/h 6mph /  9.7km/h 69.4% 0.00in /  0mm 60 W/m2
08:24 19 °F /  -7.2 °C 9.9 °F /  -12.3 °C 30.48in /  1032.1hPa WNW 3.8mph /  6.1km/h 11mph /  17.7km/h 67.1% 0.00in /  0mm 65 W/m2
08:29 19.5 °F /  -6.9 °C 9.4 °F /  -12.6 °C 30.49in /  1032.4hPa WNW 3.8mph /  6.1km/h 11mph /  17.7km/h 64.4% 0.00in /  0mm 67 W/m2
08:34 19.8 °F /  -6.8 °C 9.6 °F /  -12.4 °C 30.50in /  1032.7hPa WNW 2.2mph /  3.5km/h 11mph /  17.7km/h 63.9% 0.00in /  0mm 69 W/m2
08:39 20.2 °F /  -6.6 °C 9.5 °F /  -12.5 °C 30.50in /  1032.7hPa WNW 2.5mph /  4km/h 11mph /  17.7km/h 62.6% 0.00in /  0mm 69 W/m2
08:44 20.6 °F /  -6.3 °C 9.5 °F /  -12.5 °C 30.50in /  1032.7hPa WNW 3.2mph /  5.1km/h 11mph /  17.7km/h 61.6% 0.00in /  0mm 63 W/m2
08:49 20.8 °F /  -6.2 °C 9.4 °F /  -12.6 °C 30.50in /  1032.7hPa WNW 1.7mph /  2.7km/h 11mph /  17.7km/h 60.7% 0.00in /  0mm 65 W/m2
08:54 21.1 °F /  -6.1 °C 9.6 °F /  -12.4 °C 30.51in /  1033.1hPa WNW 4.3mph /  6.9km/h 11mph /  17.7km/h 60.5% 0.00in /  0mm 67 W/m2
08:59 21.4 °F /  -5.9 °C 9.6 °F /  -12.4 °C 30.50in /  1032.7hPa WNW 4.7mph /  7.6km/h 11mph /  17.7km/h 59.7% 0.00in /  0mm 65 W/m2
09:04 21.5 °F /  -5.8 °C 9.4 °F /  -12.6 °C 30.50in /  1032.7hPa WNW 5.7mph /  9.2km/h 11mph /  17.7km/h 59% 0.00in /  0mm 62 W/m2
09:09 21.5 °F /  -5.8 °C 9.2 °F /  -12.7 °C 30.51in /  1033.1hPa NW 5.9mph /  9.5km/h 12mph /  19.3km/h 58.6% 0.00in /  0mm 62 W/m2
09:14 21.3 °F /  -5.9 °C 9.2 °F /  -12.7 °C 30.51in /  1033.1hPa WNW 5.5mph /  8.9km/h 12mph /  19.3km/h 59% 0.00in /  0mm 47 W/m2
09:19 21.1 °F /  -6.1 °C 9 °F /  -12.8 °C 30.51in /  1033.1hPa WNW 7mph /  11.3km/h 13mph /  20.9km/h 59% 0.00in /  0mm 47 W/m2
09:24 20.9 °F /  -6.2 °C 8.8 °F /  -12.9 °C 30.52in /  1033.4hPa NW 3.2mph /  5.1km/h 13mph /  20.9km/h 59% 0.00in /  0mm 49 W/m2
09:29 20.8 °F /  -6.2 °C 8.8 °F /  -12.9 °C 30.52in /  1033.4hPa NW 4.5mph /  7.2km/h 13mph /  20.9km/h 59.2% 0.00in /  0mm 46 W/m2
09:34 20.8 °F /  -6.2 °C 8.8 °F /  -12.9 °C 30.53in /  1033.7hPa NW 1.3mph /  2.1km/h 13mph /  20.9km/h 59% 0.00in /  0mm 51 W/m2
09:39 21.1 °F /  -6.1 °C 9.3 °F /  -12.6 °C 30.53in /  1033.7hPa NW 2.8mph /  4.5km/h 7mph /  11.3km/h 59.8% 0.00in /  0mm 47 W/m2
09:44 21.3 °F /  -5.9 °C 9.5 °F /  -12.5 °C 30.53in /  1033.7hPa WNW 3.7mph /  6km/h 9mph /  14.5km/h 59.6% 0.00in /  0mm 35 W/m2
09:49 21.5 °F /  -5.8 °C 9.4 °F /  -12.6 °C 30.53in /  1033.7hPa WNW 2.4mph /  3.9km/h 9mph /  14.5km/h 59% 0.00in /  0mm 42 W/m2
09:54 21.5 °F /  -5.8 °C 9.2 °F /  -12.7 °C 30.53in /  1033.7hPa WNW 5.1mph /  8.2km/h 10mph /  16.1km/h 58.5% 0.00in /  0mm 42 W/m2
09:59 21.5 °F /  -5.8 °C 9.3 °F /  -12.6 °C 30.53in /  1033.7hPa WNW 3.3mph /  5.3km/h 10mph /  16.1km/h 58.8% 0.00in /  0mm 33 W/m2
10:04 21.4 °F /  -5.9 °C 9.3 °F /  -12.6 °C 30.54in /  1034.1hPa WNW 4.3mph /  6.9km/h 11mph /  17.7km/h 59% 0.00in /  0mm 44 W/m2
10:09 21.5 °F /  -5.8 °C 9.5 °F /  -12.5 °C 30.55in /  1034.4hPa WNW 3.6mph /  5.8km/h 11mph /  17.7km/h 59.2% 0.00in /  0mm 54 W/m2
10:14 21.6 °F /  -5.8 °C 9.7 °F /  -12.4 °C 30.55in /  1034.4hPa WNW 6.9mph /  11.1km/h 14mph /  22.5km/h 59.4% 0.00in /  0mm 62 W/m2
10:19 21.9 °F /  -5.6 °C 9.7 °F /  -12.4 °C 30.55in /  1034.4hPa NW 5.9mph /  9.5km/h 14mph /  22.5km/h 59% 0.00in /  0mm 98 W/m2
10:24 22.2 °F /  -5.4 °C 10.1 °F /  -12.2 °C 30.55in /  1034.4hPa WNW 5mph /  8km/h 14mph /  22.5km/h 59% 0.00in /  0mm 127 W/m2
10:29 22.8 °F /  -5.1 °C 10.3 °F /  -12.1 °C 30.55in /  1034.4hPa WNW 5.9mph /  9.5km/h 14mph /  22.5km/h 58.1% 0.00in /  0mm 142 W/m2
10:34 23.5 °F /  -4.7 °C 10.7 °F /  -11.8 °C 30.55in /  1034.4hPa WNW 7.4mph /  11.9km/h 17mph /  27.4km/h 57.5% 0.00in /  0mm 153 W/m2
10:39 24.1 °F /  -4.4 °C 10.7 °F /  -11.8 °C 30.55in /  1034.4hPa WNW 6.6mph /  10.6km/h 17mph /  27.4km/h 56% 0.00in /  0mm 153 W/m2
10:44 24.6 °F /  -4.1 °C 10.9 °F /  -11.7 °C 30.55in /  1034.4hPa NW 6.8mph /  10.9km/h 17mph /  27.4km/h 55.4% 0.00in /  0mm 125 W/m2
10:49 24.9 °F /  -3.9 °C 11.2 °F /  -11.6 °C 30.55in /  1034.4hPa WNW 3.1mph /  5km/h 17mph /  27.4km/h 55.3% 0.00in /  0mm 77 W/m2
10:54 25.3 °F /  -3.7 °C 11.4 °F /  -11.4 °C 30.54in /  1034.1hPa WNW 3.6mph /  5.8km/h 17mph /  27.4km/h 55% 0.00in /  0mm 93 W/m2
10:59 25.7 °F /  -3.5 °C 11.7 °F /  -11.3 °C 30.54in /  1034.1hPa NW 3.8mph /  6.1km/h 17mph /  27.4km/h 54.8% 0.00in /  0mm 139 W/m2
11:04 26 °F /  -3.3 °C 11.3 °F /  -11.5 °C 30.54in /  1034.1hPa NW 4.4mph /  7.1km/h 17mph /  27.4km/h 53.1% 0.00in /  0mm 137 W/m2
11:09 26.1 °F /  -3.3 °C 11.3 °F /  -11.5 °C 30.54in /  1034.1hPa NW 3.7mph /  6km/h 13mph /  20.9km/h 53% 0.00in /  0mm 81 W/m2
11:14 26.2 °F /  -3.2 °C 11.5 °F /  -11.4 °C 30.54in /  1034.1hPa WNW 4.5mph /  7.2km/h 13mph /  20.9km/h 53.2% 0.00in /  0mm 83 W/m2
11:19 26.2 °F /  -3.2 °C 11 °F /  -11.7 °C 30.55in /  1034.4hPa NW 2.9mph /  4.7km/h 13mph /  20.9km/h 52.1% 0.00in /  0mm 88 W/m2
11:24 26.2 °F /  -3.2 °C 11.4 °F /  -11.4 °C 30.55in /  1034.4hPa NNW 1.1mph /  1.8km/h 13mph /  20.9km/h 52.8% 0.00in /  0mm 35 W/m2
11:29 26.4 °F /  -3.1 °C 11.8 °F /  -11.2 °C 30.54in /  1034.1hPa North 2.7mph /  4.3km/h 13mph /  20.9km/h 53.5% 0.00in /  0mm 46 W/m2
11:34 26.6 °F /  -3 °C 12 °F /  -11.1 °C 30.54in /  1034.1hPa NW 3.4mph /  5.5km/h 13mph /  20.9km/h 53.5% 0.00in /  0mm 58 W/m2
11:39 26.7 °F /  -2.9 °C 11.8 °F /  -11.2 °C 30.54in /  1034.1hPa NW 4.5mph /  7.2km/h 13mph /  20.9km/h 52.7% 0.00in /  0mm 142 W/m2
11:44 26.7 °F /  -2.9 °C 10.7 °F /  -11.8 °C 30.54in /  1034.1hPa NW 6.8mph /  10.9km/h 15mph /  24.1km/h 50.2% 0.00in /  0mm 142 W/m2
11:49 26.7 °F /  -2.9 °C 10.6 °F /  -11.9 °C 30.54in /  1034.1hPa WNW 4mph /  6.4km/h 15mph /  24.1km/h 50% 0.00in /  0mm 139 W/m2
11:54 26.9 °F /  -2.8 °C 10.9 °F /  -11.7 °C 30.54in /  1034.1hPa WNW 2.3mph /  3.7km/h 15mph /  24.1km/h 50.3% 0.00in /  0mm 163 W/m2
11:59 27.1 °F /  -2.7 °C 11.2 °F /  -11.6 °C 30.54in /  1034.1hPa NW 4.4mph /  7.1km/h 15mph /  24.1km/h 50.4% 0.00in /  0mm 234 W/m2
12:00 27.2 °F /  -2.7 °C 11 °F /  -11.7 °C 30.53in /  1033.7hPa NW 4mph /  6.4km/h 15mph /  24.1km/h 50% 0.00in /  0mm 211 W/m2
12:09 27.6 °F /  -2.4 °C 11.2 °F /  -11.6 °C 30.54in /  1034.1hPa NW 5.1mph /  8.2km/h 12mph /  19.3km/h 49.6% 0.00in /  0mm 234 W/m2
12:14 27.7 °F /  -2.4 °C 11.1 °F /  -11.6 °C 30.53in /  1033.7hPa NW 2.6mph /  4.2km/h 12mph /  19.3km/h 49.1% 0.00in /  0mm 165 W/m2
12:19 28.1 °F /  -2.2 °C 11.4 °F /  -11.4 °C 30.53in /  1033.7hPa WNW 6mph /  9.7km/h 13mph /  20.9km/h 49% 0.00in /  0mm 316 W/m2
12:24 28.4 °F /  -2 °C 10.9 °F /  -11.7 °C 30.53in /  1033.7hPa NW 2.9mph /  4.7km/h 13mph /  20.9km/h 47.4% 0.00in /  0mm 308 W/m2
12:29 28.7 °F /  -1.8 °C 11.3 °F /  -11.5 °C 30.52in /  1033.4hPa NW 3.3mph /  5.3km/h 13mph /  20.9km/h 47.5% 0.00in /  0mm 241 W/m2
12:34 28.8 °F /  -1.8 °C 11.2 °F /  -11.6 °C 30.53in /  1033.7hPa NNW 3mph /  4.8km/h 13mph /  20.9km/h 47% 0.00in /  0mm 279 W/m2
12:39 29 °F /  -1.7 °C 11.4 °F /  -11.4 °C 30.53in /  1033.7hPa NW 3.3mph /  5.3km/h 10mph /  16.1km/h 47.2% 0.00in /  0mm 67 W/m2
12:44 29.2 °F /  -1.6 °C 11 °F /  -11.7 °C 30.53in /  1033.7hPa NW 1.1mph /  1.8km/h 10mph /  16.1km/h 46.1% 0.00in /  0mm 144 W/m2
12:49 29.6 °F /  -1.3 °C 11.6 °F /  -11.3 °C 30.53in /  1033.7hPa North 0.7mph /  1.1km/h 10mph /  16.1km/h 46.5% 0.00in /  0mm 269 W/m2
12:54 30.4 °F /  -0.9 °C 12.1 °F /  -11.1 °C 30.52in /  1033.4hPa NNW 1.8mph /  2.9km/h 10mph /  16.1km/h 45.9% 0.00in /  0mm 304 W/m2
12:59 30.9 °F /  -0.6 °C 11.4 °F /  -11.4 °C 30.52in /  1033.4hPa NW 3.3mph /  5.3km/h 11mph /  17.7km/h 43.7% 0.00in /  0mm 292 W/m2
13:04 30.9 °F /  -0.6 °C 10.5 °F /  -11.9 °C 30.53in /  1033.7hPa NW 2.1mph /  3.4km/h 11mph /  17.7km/h 42% 0.00in /  0mm 178 W/m2
13:09 30.8 °F /  -0.7 °C 10.9 °F /  -11.7 °C 30.53in /  1033.7hPa NNW 1.8mph /  2.9km/h 10mph /  16.1km/h 42.9% 0.00in /  0mm 81 W/m2
13:14 30.8 °F /  -0.7 °C 11.2 °F /  -11.6 °C 30.52in /  1033.4hPa NW 2mph /  3.2km/h 10mph /  16.1km/h 43.5% 0.00in /  0mm 127 W/m2
13:19 30.9 °F /  -0.6 °C 10.8 °F /  -11.8 °C 30.52in /  1033.4hPa NNW 0.8mph /  1.3km/h 10mph /  16.1km/h 42.5% 0.00in /  0mm 376 W/m2
13:24 31.1 °F /  -0.5 °C 10.9 °F /  -11.7 °C 30.52in /  1033.4hPa North 0.3mph /  0.5km/h 10mph /  16.1km/h 42.5% 0.00in /  0mm 353 W/m2
13:29 31.1 °F /  -0.5 °C 9.7 °F /  -12.4 °C 30.52in /  1033.4hPa Calm   10mph /  16.1km/h 40.3% 0.00in /  0mm 155 W/m2
13:34 31.5 °F /  -0.3 °C 10.5 °F /  -11.9 °C 30.52in /  1033.4hPa NNW 1.8mph /  2.9km/h 10mph /  16.1km/h 40.9% 0.00in /  0mm 98 W/m2
13:39 31.9 °F /  -0.1 °C 11 °F /  -11.7 °C 30.52in /  1033.4hPa North 0.8mph /  1.3km/h 7mph /  11.3km/h 41.1% 0.00in /  0mm 58 W/m2
13:44 32 °F /  0 °C 11.5 °F /  -11.4 °C 30.52in /  1033.4hPa North 0.7mph /  1.1km/h 7mph /  11.3km/h 41.9% 0.00in /  0mm 58 W/m2
13:49 32 °F /  0 °C 10.7 °F /  -11.8 °C 30.52in /  1033.4hPa North 0.5mph /  0.8km/h 7mph /  11.3km/h 40.5% 0.00in /  0mm 84 W/m2
13:54 32.1 °F /  0.1 °C 10.3 °F /  -12.1 °C 30.53in /  1033.7hPa North 0.4mph /  0.6km/h 7mph /  11.3km/h 39.7% 0.00in /  0mm 322 W/m2
13:59 32.2 °F /  0.1 °C 11.2 °F /  -11.6 °C 30.52in /  1033.4hPa North 0.6mph /  1km/h 7mph /  11.3km/h 41.1% 0.00in /  0mm 281 W/m2
14:04 32.1 °F /  0.1 °C 10.1 °F /  -12.2 °C 30.52in /  1033.4hPa NNE 0.7mph /  1.1km/h 7mph /  11.3km/h 39.4% 0.00in /  0mm 299 W/m2
14:09 31.5 °F /  -0.3 °C 8.8 °F /  -12.9 °C 30.51in /  1033.1hPa NNE 1.5mph /  2.4km/h 4mph /  6.4km/h 38% 0.00in /  0mm 359 W/m2
14:14 31.1 °F /  -0.5 °C 9.3 °F /  -12.6 °C 30.51in /  1033.1hPa NE 0.2mph /  0.3km/h 4mph /  6.4km/h 39.4% 0.00in /  0mm 343 W/m2
14:19 31.1 °F /  -0.5 °C 9.2 °F /  -12.7 °C 30.52in /  1033.4hPa NE 0.5mph /  0.8km/h 4mph /  6.4km/h 39.3% 0.00in /  0mm 216 W/m2
14:24 31.1 °F /  -0.5 °C 9.1 °F /  -12.7 °C 30.51in /  1033.1hPa NE 0.9mph /  1.4km/h 4mph /  6.4km/h 39.1% 0.00in /  0mm 144 W/m2
14:29 31 °F /  -0.6 °C 8.8 °F /  -12.9 °C 30.52in /  1033.4hPa NE 0.1mph /  0.2km/h 4mph /  6.4km/h 38.7% 0.00in /  0mm 315 W/m2
14:34 31.1 °F /  -0.5 °C 8.6 °F /  -13 °C 30.52in /  1033.4hPa Calm   4mph /  6.4km/h 38.2% 0.00in /  0mm 49 W/m2
14:39 31.3 °F /  -0.4 °C 8.5 °F /  -13.1 °C 30.52in /  1033.4hPa NE 0.1mph /  0.2km/h 2mph /  3.2km/h 37.7% 0.00in /  0mm 49 W/m2
14:44 31.5 °F /  -0.3 °C 8.6 °F /  -13 °C 30.53in /  1033.7hPa Calm   2mph /  3.2km/h 37.6% 0.00in /  0mm 104 W/m2
14:49 31.5 °F /  -0.3 °C 8.2 °F /  -13.2 °C 30.53in /  1033.7hPa Calm   2mph /  3.2km/h 37% 0.00in /  0mm 83 W/m2
14:54 31.4 °F /  -0.3 °C 8.2 °F /  -13.2 °C 30.53in /  1033.7hPa Calm   2mph /  3.2km/h 37.2% 0.00in /  0mm 18 W/m2
14:59 31.3 °F /  -0.4 °C 8.5 °F /  -13.1 °C 30.53in /  1033.7hPa Calm   2mph /  3.2km/h 37.7% 0.00in /  0mm 16 W/m2
15:04 31.2 °F /  -0.4 °C 8.3 °F /  -13.2 °C 30.53in /  1033.7hPa Calm   2mph /  3.2km/h 37.5% 0.00in /  0mm 16 W/m2
15:09 31.1 °F /  -0.5 °C 8.3 °F /  -13.2 °C 30.53in /  1033.7hPa Calm     37.7% 0.00in /  0mm 14 W/m2
15:14 30.9 °F /  -0.6 °C 8.2 °F /  -13.2 °C 30.53in /  1033.7hPa Calm     38% 0.00in /  0mm 12 W/m2
15:19 30.6 °F /  -0.8 °C 7.7 °F /  -13.5 °C 30.54in /  1034.1hPa Calm     37.4% 0.00in /  0mm 12 W/m2
15:24 30.5 °F /  -0.8 °C 8.3 °F /  -13.2 °C 30.54in /  1034.1hPa Calm     38.6% 0.00in /  0mm 12 W/m2
15:29 30.4 °F /  -0.9 °C 8.8 °F /  -12.9 °C 30.54in /  1034.1hPa Calm     39.7% 0.00in /  0mm 12 W/m2
15:34 30.3 °F /  -0.9 °C 7.8 °F /  -13.4 °C 30.54in /  1034.1hPa Calm     38.1% 0.00in /  0mm 11 W/m2
15:39 30.2 °F /  -1 °C 7.7 °F /  -13.5 °C 30.54in /  1034.1hPa Calm     38% 0.00in /  0mm 9 W/m2
15:44 30.1 °F /  -1.1 °C 7.6 °F /  -13.6 °C 30.54in /  1034.1hPa Calm     38% 0.00in /  0mm 9 W/m2
15:49 29.9 °F /  -1.2 °C 8.1 °F /  -13.3 °C 30.54in /  1034.1hPa Calm     39.3% 0.00in /  0mm 9 W/m2
15:54 29.8 °F /  -1.2 °C 8.4 °F /  -13.1 °C 30.54in /  1034.1hPa Calm     40% 0.00in /  0mm 9 W/m2
15:59 29.6 °F /  -1.3 °C 8.7 °F /  -12.9 °C 30.54in /  1034.1hPa Calm     40.7% 0.00in /  0mm 7 W/m2
16:00 29.6 °F /  -1.3 °C 8.8 °F /  -12.9 °C 30.54in /  1034.1hPa Calm     41% 0.00in /  0mm 7 W/m2
16:09 29.3 °F /  -1.5 °C 8.5 °F /  -13.1 °C 30.55in /  1034.4hPa Calm     41% 0.00in /  0mm 5 W/m2
16:14 29.2 °F /  -1.6 °C 8.4 °F /  -13.1 °C 30.55in /  1034.4hPa Calm     41% 0.00in /  0mm 5 W/m2
16:19 29.1 °F /  -1.6 °C 8.4 °F /  -13.1 °C 30.55in /  1034.4hPa Calm     41.2% 0.00in /  0mm 5 W/m2
16:24 29 °F /  -1.7 °C 8.8 °F /  -12.9 °C 30.55in /  1034.4hPa Calm     42% 0.00in /  0mm 0 W/m2
16:29 28.9 °F /  -1.7 °C 9.2 °F /  -12.7 °C 30.54in /  1034.1hPa Calm     42.9% 0.00in /  0mm 0 W/m2
16:34 28.7 °F /  -1.8 °C 9.4 °F /  -12.6 °C 30.55in /  1034.4hPa Calm     43.7% 0.00in /  0mm 0 W/m2
16:39 28.4 °F /  -2 °C 9.3 °F /  -12.6 °C 30.55in /  1034.4hPa Calm     44% 0.00in /  0mm 0 W/m2
16:44 28.1 °F /  -2.2 °C 9.2 °F /  -12.7 °C 30.55in /  1034.4hPa Calm     44.4% 0.00in /  0mm 0 W/m2
16:49 27.8 °F /  -2.3 °C 9.3 °F /  -12.6 °C 30.55in /  1034.4hPa Calm     45% 0.00in /  0mm 0 W/m2
16:54 27.6 °F /  -2.4 °C 9.4 °F /  -12.6 °C 30.55in /  1034.4hPa Calm     45.6% 0.00in /  0mm 0 W/m2
16:59 27.5 °F /  -2.5 °C 9.7 °F /  -12.4 °C 30.54in /  1034.1hPa Calm     46.7% 0.00in /  0mm 0 W/m2
17:04 27.2 °F /  -2.7 °C 9.7 °F /  -12.4 °C 30.54in /  1034.1hPa Calm     46.9% 0.00in /  0mm 0 W/m2
17:09 27.1 °F /  -2.7 °C 9.6 °F /  -12.4 °C 30.54in /  1034.1hPa Calm     47.1% 0.00in /  0mm 0 W/m2
17:14 26.9 °F /  -2.8 °C 9.8 °F /  -12.3 °C 30.54in /  1034.1hPa Calm     48% 0.00in /  0mm 0 W/m2
17:19 26.7 °F /  -2.9 °C 10.4 °F /  -12 °C 30.54in /  1034.1hPa Calm     49.7% 0.00in /  0mm 0 W/m2
17:24 26.5 °F /  -3.1 °C 10.4 °F /  -12 °C 30.55in /  1034.4hPa Calm     50% 0.00in /  0mm 0 W/m2
17:29 26.3 °F /  -3.2 °C 10.6 °F /  -11.9 °C 30.55in /  1034.4hPa Calm     50.8% 0.00in /  0mm 0 W/m2
17:34 26.1 °F /  -3.3 °C 10.5 °F /  -11.9 °C 30.56in /  1034.8hPa Calm     51% 0.00in /  0mm 0 W/m2
17:39 25.9 °F /  -3.4 °C 10.3 °F /  -12.1 °C 30.56in /  1034.8hPa Calm     51% 0.00in /  0mm 0 W/m2
17:44 25.7 °F /  -3.5 °C 10.1 °F /  -12.2 °C 30.55in /  1034.4hPa Calm     51% 0.00in /  0mm 0 W/m2
17:49 25.5 °F /  -3.6 °C 10.3 °F /  -12.1 °C 30.55in /  1034.4hPa Calm     51.9% 0.00in /  0mm 0 W/m2
17:54 25.4 °F /  -3.7 °C 10.7 °F /  -11.8 °C 30.56in /  1034.8hPa Calm     53% 0.00in /  0mm 0 W/m2
17:59 25.3 °F /  -3.7 °C 10.8 °F /  -11.8 °C 30.56in /  1034.8hPa Calm     53.6% 0.00in /  0mm 0 W/m2
18:04 25.2 °F /  -3.8 °C 10.7 °F /  -11.8 °C 30.56in /  1034.8hPa Calm     53.7% 0.00in /  0mm 0 W/m2
18:09 25 °F /  -3.9 °C 10.3 °F /  -12.1 °C 30.56in /  1034.8hPa Calm     53% 0.00in /  0mm 0 W/m2
18:14 24.9 °F /  -3.9 °C 10.2 °F /  -12.1 °C 30.56in /  1034.8hPa Calm     53% 0.00in /  0mm 0 W/m2
18:19 24.7 °F /  -4.1 °C 9.7 °F /  -12.4 °C 30.56in /  1034.8hPa Calm     52.1% 0.00in /  0mm 0 W/m2
18:24 24.6 °F /  -4.1 °C 10 °F /  -12.2 °C 30.56in /  1034.8hPa Calm     53.3% 0.00in /  0mm 0 W/m2
18:29 24.5 °F /  -4.2 °C 10.2 °F /  -12.1 °C 30.56in /  1034.8hPa Calm     54% 0.00in /  0mm 0 W/m2
18:34 24.4 °F /  -4.2 °C 10.2 °F /  -12.1 °C 30.56in /  1034.8hPa Calm     54.3% 0.00in /  0mm 0 W/m2
18:39 24.3 °F /  -4.3 °C 10.9 °F /  -11.7 °C 30.56in /  1034.8hPa Calm     56% 0.00in /  0mm 0 W/m2
18:44 24.3 °F /  -4.3 °C 12.6 °F /  -10.8 °C 30.56in /  1034.8hPa Calm     60.5% 0.00in /  0mm 0 W/m2
18:49 24.3 °F /  -4.3 °C 12.7 °F /  -10.7 °C 30.56in /  1034.8hPa Calm     60.8% 0.00in /  0mm 0 W/m2
18:54 24.2 °F /  -4.3 °C 12.9 °F /  -10.6 °C 30.56in /  1034.8hPa Calm     61.6% 0.00in /  0mm 0 W/m2
18:59 24.2 °F /  -4.3 °C 13 °F /  -10.6 °C 30.56in /  1034.8hPa Calm     61.8% 0.00in /  0mm 0 W/m2
19:04 24.1 °F /  -4.4 °C 12.5 °F /  -10.8 °C 30.56in /  1034.8hPa Calm     60.5% 0.00in /  0mm 0 W/m2
19:09 24 °F /  -4.4 °C 12.5 °F /  -10.8 °C 30.56in /  1034.8hPa Calm     61% 0.00in /  0mm 0 W/m2
19:14 23.9 °F /  -4.5 °C 12.4 °F /  -10.9 °C 30.56in /  1034.8hPa Calm     61.1% 0.00in /  0mm 0 W/m2
19:19 23.7 °F /  -4.6 °C 12.5 °F /  -10.8 °C 30.56in /  1034.8hPa Calm     61.7% 0.00in /  0mm 0 W/m2
19:24 23.5 °F /  -4.7 °C 12.4 °F /  -10.9 °C 30.56in /  1034.8hPa Calm     62% 0.00in /  0mm 0 W/m2
19:29 23.3 °F /  -4.8 °C 12.6 °F /  -10.8 °C 30.56in /  1034.8hPa Calm     62.9% 0.00in /  0mm 0 W/m2
19:34 23.1 °F /  -4.9 °C 12.4 °F /  -10.9 °C 30.56in /  1034.8hPa Calm     63% 0.00in /  0mm 0 W/m2
19:39 22.9 °F /  -5.1 °C 11.9 °F /  -11.2 °C 30.56in /  1034.8hPa Calm     62.1% 0.00in /  0mm 0 W/m2
19:44 22.7 °F /  -5.2 °C 11.3 °F /  -11.5 °C 30.56in /  1034.8hPa Calm     61% 0.00in /  0mm 0 W/m2
19:49 22.5 °F /  -5.3 °C 10.9 °F /  -11.7 °C 30.56in /  1034.8hPa Calm     60.6% 0.00in /  0mm 0 W/m2
19:54 22.2 °F /  -5.4 °C 10.1 °F /  -12.2 °C 30.55in /  1034.4hPa Calm     59% 0.00in /  0mm 0 W/m2
19:59 22.1 °F /  -5.5 °C 9.7 °F /  -12.4 °C 30.55in /  1034.4hPa Calm     58.3% 0.00in /  0mm 0 W/m2
20:00 22 °F /  -5.6 °C 9.5 °F /  -12.5 °C 30.55in /  1034.4hPa Calm     58% 0.00in /  0mm 0 W/m2
20:09 21.6 °F /  -5.8 °C 10 °F /  -12.2 °C 30.56in /  1034.8hPa Calm     60.3% 0.00in /  0mm 0 W/m2
20:14 21.5 °F /  -5.8 °C 9.9 °F /  -12.3 °C 30.57in /  1035.1hPa Calm     60.3% 0.00in /  0mm 0 W/m2
20:19 21.5 °F /  -5.8 °C 9.9 °F /  -12.3 °C 30.57in /  1035.1hPa Calm     60.5% 0.00in /  0mm 0 W/m2
20:24 21.4 °F /  -5.9 °C 10.1 °F /  -12.2 °C 30.57in /  1035.1hPa Calm     61.2% 0.00in /  0mm 0 W/m2
20:29 21.4 °F /  -5.9 °C 10.2 °F /  -12.1 °C 30.57in /  1035.1hPa Calm     61.3% 0.00in /  0mm 0 W/m2
20:34 21.4 °F /  -5.9 °C 10.4 °F /  -12 °C 30.57in /  1035.1hPa Calm     62% 0.00in /  0mm 0 W/m2
20:39 21.3 °F /  -5.9 °C 9.7 °F /  -12.4 °C 30.56in /  1034.8hPa Calm     60.4% 0.00in /  0mm 0 W/m2
20:44 21.2 °F /  -6 °C 9.8 °F /  -12.3 °C 30.56in /  1034.8hPa Calm     60.9% 0.00in /  0mm 0 W/m2
20:49 21 °F /  -6.1 °C 10.2 °F /  -12.1 °C 30.56in /  1034.8hPa Calm     62.5% 0.00in /  0mm 0 W/m2
20:54 20.9 °F /  -6.2 °C 10.7 °F /  -11.8 °C 30.56in /  1034.8hPa Calm     64.3% 0.00in /  0mm 0 W/m2
20:59 20.7 °F /  -6.3 °C 10.9 °F /  -11.7 °C 30.56in /  1034.8hPa Calm     65.3% 0.00in /  0mm 0 W/m2
21:04 20.5 °F /  -6.4 °C 10.8 °F /  -11.8 °C 30.56in /  1034.8hPa Calm     65.5% 0.00in /  0mm 0 W/m2
21:09 20.3 °F /  -6.5 °C 10.3 °F /  -12.1 °C 30.56in /  1034.8hPa Calm     64.6% 0.00in /  0mm 0 W/m2
21:14 20.2 °F /  -6.6 °C 10 °F /  -12.2 °C 30.55in /  1034.4hPa Calm     64% 0.00in /  0mm 0 W/m2
21:19 20.1 °F /  -6.6 °C 9.9 °F /  -12.3 °C 30.55in /  1034.4hPa Calm     64% 0.00in /  0mm 0 W/m2
21:24 20.1 °F /  -6.6 °C 9.9 °F /  -12.3 °C 30.55in /  1034.4hPa Calm     63.8% 0.00in /  0mm 0 W/m2
21:29 20.2 °F /  -6.6 °C 9.7 °F /  -12.4 °C 30.55in /  1034.4hPa Calm     63% 0.00in /  0mm 0 W/m2
21:34 20.4 °F /  -6.4 °C 10 °F /  -12.2 °C 30.55in /  1034.4hPa Calm     63.6% 0.00in /  0mm 0 W/m2
21:39 20.4 °F /  -6.4 °C 10.5 °F /  -11.9 °C 30.55in /  1034.4hPa Calm     64.9% 0.00in /  0mm 0 W/m2
21:44 20.4 °F /  -6.4 °C 10.5 °F /  -11.9 °C 30.55in /  1034.4hPa Calm     65% 0.00in /  0mm 0 W/m2
21:49 20.3 °F /  -6.5 °C 10.6 °F /  -11.9 °C 30.55in /  1034.4hPa Calm     65.7% 0.00in /  0mm 0 W/m2
21:54 20.1 °F /  -6.6 °C 10.6 °F /  -11.9 °C 30.55in /  1034.4hPa Calm     66% 0.00in /  0mm 0 W/m2
21:59 19.9 °F /  -6.7 °C 10.6 °F /  -11.9 °C 30.54in /  1034.1hPa Calm     66.6% 0.00in /  0mm 0 W/m2
22:04 19.9 °F /  -6.7 °C 10.7 °F /  -11.8 °C 30.54in /  1034.1hPa Calm     66.9% 0.00in /  0mm 0 W/m2
22:09 19.8 °F /  -6.8 °C 10.6 °F /  -11.9 °C 30.54in /  1034.1hPa Calm     67% 0.00in /  0mm 0 W/m2
22:14 19.8 °F /  -6.8 °C 10.6 °F /  -11.9 °C 30.54in /  1034.1hPa Calm     67% 0.00in /  0mm 0 W/m2
22:19 19.7 °F /  -6.8 °C 10.6 °F /  -11.9 °C 30.53in /  1033.7hPa Calm     67% 0.00in /  0mm 0 W/m2
22:24 19.8 °F /  -6.8 °C 10.6 °F /  -11.9 °C 30.53in /  1033.7hPa Calm     67% 0.00in /  0mm 0 W/m2
22:29 19.8 °F /  -6.8 °C 10.6 °F /  -11.9 °C 30.53in /  1033.7hPa Calm     67% 0.00in /  0mm 0 W/m2
22:34 19.8 °F /  -6.8 °C 10.6 °F /  -11.9 °C 30.53in /  1033.7hPa Calm     67% 0.00in /  0mm 0 W/m2
22:39 19.6 °F /  -6.9 °C 10.6 °F /  -11.9 °C 30.53in /  1033.7hPa Calm     67.5% 0.00in /  0mm 0 W/m2
22:44 19.5 °F /  -6.9 °C 10.6 °F /  -11.9 °C 30.53in /  1033.7hPa Calm     68% 0.00in /  0mm 0 W/m2
22:49 19.4 °F /  -7 °C 10.6 °F /  -11.9 °C 30.52in /  1033.4hPa Calm     68% 0.00in /  0mm 0 W/m2
22:54 19.4 °F /  -7 °C 10.6 °F /  -11.9 °C 30.53in /  1033.7hPa Calm     68% 0.00in /  0mm 0 W/m2
22:59 19.3 °F /  -7.1 °C 10.6 °F /  -11.9 °C 30.53in /  1033.7hPa Calm     68.3% 0.00in /  0mm 0 W/m2
23:00 19.3 °F /  -7.1 °C 10.8 °F /  -11.8 °C 30.52in /  1033.4hPa Calm     69% 0.00in /  0mm 0 W/m2
23:09 19.2 °F /  -7.1 °C 10.4 °F /  -12 °C 30.51in /  1033.1hPa Calm     68% 0.00in /  0mm 0 W/m2
23:14 19.2 °F /  -7.1 °C 10.1 °F /  -12.2 °C 30.51in /  1033.1hPa Calm     67.2% 0.00in /  0mm 0 W/m2
23:19 19.2 °F /  -7.1 °C 10.2 °F /  -12.1 °C 30.50in /  1032.7hPa Calm     67.3% 0.00in /  0mm 0 W/m2
23:24 19.2 °F /  -7.1 °C 10.4 °F /  -12 °C 30.50in /  1032.7hPa Calm     68% 0.00in /  0mm 0 W/m2
23:29 19.2 °F /  -7.1 °C 10.4 °F /  -12 °C 30.49in /  1032.4hPa Calm     68% 0.00in /  0mm 0 W/m2
23:34 19.2 °F /  -7.1 °C 10.4 °F /  -12 °C 30.49in /  1032.4hPa Calm     68% 0.00in /  0mm 0 W/m2
23:39 19.1 °F /  -7.2 °C 10.3 °F /  -12.1 °C 30.49in /  1032.4hPa Calm     68% 0.00in /  0mm 0 W/m2
23:44 19 °F /  -7.2 °C 10.2 °F /  -12.1 °C 30.49in /  1032.4hPa Calm     68% 0.00in /  0mm 0 W/m2
23:49 18.9 °F /  -7.3 °C 10.1 °F /  -12.2 °C 30.49in /  1032.4hPa Calm     68% 0.00in /  0mm 0 W/m2
23:54 18.8 °F /  -7.3 °C 10 °F /  -12.2 °C 30.49in /  1032.4hPa Calm     68% 0.00in /  0mm 0 W/m2
23:59 18.7 °F /  -7.4 °C 10.1 °F /  -12.2 °C 30.49in /  1032.4hPa Calm     68.5% 0.00in /  0mm 0 W/m2
Hartford County Weather
Compliments of Weather Underground - 2 mb